sensor_id;sensor_type;location;lat;lon;timestamp;P1;durP1;ratioP1;P2;durP2;ratioP2
50988;SDS011;37008;52.210;21.112;2022-08-19T00:00:27;16.88;;;14.65;;
50988;SDS011;37008;52.210;21.112;2022-08-19T00:02:53;17.85;;;14.82;;
50988;SDS011;37008;52.210;21.112;2022-08-19T00:05:20;18.83;;;15.45;;
50988;SDS011;37008;52.210;21.112;2022-08-19T00:07:47;18.73;;;15.77;;
50988;SDS011;37008;52.210;21.112;2022-08-19T00:10:14;23.45;;;16.08;;
50988;SDS011;37008;52.210;21.112;2022-08-19T00:12:41;21.83;;;15.80;;
50988;SDS011;37008;52.210;21.112;2022-08-19T00:15:10;19.20;;;15.90;;
50988;SDS011;37008;52.210;21.112;2022-08-19T00:17:38;20.33;;;16.58;;
50988;SDS011;37008;52.210;21.112;2022-08-19T00:20:06;19.05;;;15.10;;
50988;SDS011;37008;52.210;21.112;2022-08-19T00:22:33;18.35;;;15.93;;
50988;SDS011;37008;52.210;21.112;2022-08-19T00:24:59;22.27;;;17.33;;
50988;SDS011;37008;52.210;21.112;2022-08-19T00:27:25;19.85;;;15.80;;
50988;SDS011;37008;52.210;21.112;2022-08-19T00:29:50;22.15;;;17.15;;
50988;SDS011;37008;52.210;21.112;2022-08-19T00:32:16;19.05;;;16.45;;
50988;SDS011;37008;52.210;21.112;2022-08-19T00:34:42;28.02;;;17.88;;
50988;SDS011;37008;52.210;21.112;2022-08-19T00:37:08;18.77;;;16.63;;
50988;SDS011;37008;52.210;21.112;2022-08-19T00:39:34;22.98;;;15.35;;
50988;SDS011;37008;52.210;21.112;2022-08-19T00:41:59;22.80;;;17.10;;
50988;SDS011;37008;52.210;21.112;2022-08-19T00:44:26;22.27;;;16.83;;
50988;SDS011;37008;52.210;21.112;2022-08-19T00:46:54;22.33;;;16.35;;
50988;SDS011;37008;52.210;21.112;2022-08-19T00:49:31;20.73;;;16.63;;
50988;SDS011;37008;52.210;21.112;2022-08-19T00:52:14;21.25;;;15.52;;
50988;SDS011;37008;52.210;21.112;2022-08-19T00:54:43;18.30;;;16.02;;
50988;SDS011;37008;52.210;21.112;2022-08-19T00:57:13;21.67;;;17.02;;
50988;SDS011;37008;52.210;21.112;2022-08-19T00:59:42;19.50;;;16.90;;
50988;SDS011;37008;52.210;21.112;2022-08-19T01:02:11;19.52;;;17.42;;
50988;SDS011;37008;52.210;21.112;2022-08-19T01:04:36;21.67;;;17.60;;
50988;SDS011;37008;52.210;21.112;2022-08-19T01:07:02;20.23;;;17.63;;
50988;SDS011;37008;52.210;21.112;2022-08-19T01:09:29;21.48;;;16.95;;
50988;SDS011;37008;52.210;21.112;2022-08-19T01:11:55;19.30;;;15.65;;
50988;SDS011;37008;52.210;21.112;2022-08-19T01:14:21;18.77;;;16.52;;
50988;SDS011;37008;52.210;21.112;2022-08-19T01:16:49;25.45;;;17.92;;
50988;SDS011;37008;52.210;21.112;2022-08-19T01:19:21;22.10;;;16.65;;
50988;SDS011;37008;52.210;21.112;2022-08-19T01:22:03;23.40;;;17.38;;
50988;SDS011;37008;52.210;21.112;2022-08-19T01:24:38;20.60;;;17.38;;
50988;SDS011;37008;52.210;21.112;2022-08-19T01:27:04;20.45;;;16.92;;
50988;SDS011;37008;52.210;21.112;2022-08-19T01:29:31;19.10;;;17.08;;
50988;SDS011;37008;52.210;21.112;2022-08-19T01:31:57;24.50;;;18.35;;
50988;SDS011;37008;52.210;21.112;2022-08-19T01:34:23;20.95;;;17.50;;
50988;SDS011;37008;52.210;21.112;2022-08-19T01:36:49;21.98;;;17.23;;
50988;SDS011;37008;52.210;21.112;2022-08-19T01:39:20;24.25;;;17.63;;
50988;SDS011;37008;52.210;21.112;2022-08-19T01:41:49;23.13;;;17.38;;
50988;SDS011;37008;52.210;21.112;2022-08-19T01:44:16;21.85;;;18.05;;
50988;SDS011;37008;52.210;21.112;2022-08-19T01:46:45;23.67;;;17.30;;
50988;SDS011;37008;52.210;21.112;2022-08-19T01:49:12;20.90;;;18.67;;
50988;SDS011;37008;52.210;21.112;2022-08-19T01:51:38;20.15;;;17.58;;
50988;SDS011;37008;52.210;21.112;2022-08-19T01:54:04;21.02;;;18.00;;
50988;SDS011;37008;52.210;21.112;2022-08-19T01:56:30;21.13;;;18.23;;
50988;SDS011;37008;52.210;21.112;2022-08-19T01:58:58;20.65;;;17.58;;
50988;SDS011;37008;52.210;21.112;2022-08-19T02:01:26;21.85;;;17.40;;
50988;SDS011;37008;52.210;21.112;2022-08-19T02:03:52;22.38;;;20.05;;
50988;SDS011;37008;52.210;21.112;2022-08-19T02:06:19;25.30;;;21.77;;
50988;SDS011;37008;52.210;21.112;2022-08-19T02:08:45;22.38;;;19.45;;
50988;SDS011;37008;52.210;21.112;2022-08-19T02:11:18;24.95;;;19.45;;
50988;SDS011;37008;52.210;21.112;2022-08-19T02:13:51;24.33;;;20.00;;
50988;SDS011;37008;52.210;21.112;2022-08-19T02:16:18;21.52;;;18.33;;
50988;SDS011;37008;52.210;21.112;2022-08-19T02:18:44;19.30;;;17.27;;
50988;SDS011;37008;52.210;21.112;2022-08-19T02:21:13;20.52;;;18.33;;
50988;SDS011;37008;52.210;21.112;2022-08-19T02:23:40;25.10;;;20.10;;
50988;SDS011;37008;52.210;21.112;2022-08-19T02:26:06;23.60;;;18.48;;
50988;SDS011;37008;52.210;21.112;2022-08-19T02:28:32;24.77;;;19.50;;
50988;SDS011;37008;52.210;21.112;2022-08-19T02:30:58;23.30;;;19.13;;
50988;SDS011;37008;52.210;21.112;2022-08-19T02:33:25;20.40;;;18.25;;
50988;SDS011;37008;52.210;21.112;2022-08-19T02:35:51;20.17;;;17.95;;
50988;SDS011;37008;52.210;21.112;2022-08-19T02:38:17;24.17;;;18.48;;
50988;SDS011;37008;52.210;21.112;2022-08-19T02:40:53;23.77;;;18.98;;
50988;SDS011;37008;52.210;21.112;2022-08-19T02:43:25;23.70;;;18.80;;
50988;SDS011;37008;52.210;21.112;2022-08-19T02:45:52;20.63;;;18.50;;
50988;SDS011;37008;52.210;21.112;2022-08-19T02:48:19;20.50;;;18.30;;
50988;SDS011;37008;52.210;21.112;2022-08-19T02:50:46;23.77;;;18.98;;
50988;SDS011;37008;52.210;21.112;2022-08-19T02:53:13;27.70;;;18.40;;
50988;SDS011;37008;52.210;21.112;2022-08-19T02:55:42;22.27;;;18.92;;
50988;SDS011;37008;52.210;21.112;2022-08-19T02:58:09;27.15;;;20.05;;
50988;SDS011;37008;52.210;21.112;2022-08-19T03:00:35;25.08;;;19.88;;
50988;SDS011;37008;52.210;21.112;2022-08-19T03:03:07;21.20;;;18.20;;
50988;SDS011;37008;52.210;21.112;2022-08-19T03:05:32;23.65;;;18.77;;
50988;SDS011;37008;52.210;21.112;2022-08-19T03:07:59;19.58;;;17.55;;
50988;SDS011;37008;52.210;21.112;2022-08-19T03:10:24;23.38;;;18.80;;
50988;SDS011;37008;52.210;21.112;2022-08-19T03:12:50;21.95;;;18.65;;
50988;SDS011;37008;52.210;21.112;2022-08-19T03:15:15;20.90;;;18.77;;
50988;SDS011;37008;52.210;21.112;2022-08-19T03:17:41;22.25;;;19.90;;
50988;SDS011;37008;52.210;21.112;2022-08-19T03:20:06;20.77;;;18.73;;
50988;SDS011;37008;52.210;21.112;2022-08-19T03:22:32;24.30;;;20.38;;
50988;SDS011;37008;52.210;21.112;2022-08-19T03:24:58;23.52;;;19.38;;
50988;SDS011;37008;52.210;21.112;2022-08-19T03:27:24;24.40;;;18.75;;
50988;SDS011;37008;52.210;21.112;2022-08-19T03:29:50;24.05;;;20.08;;
50988;SDS011;37008;52.210;21.112;2022-08-19T03:32:16;27.02;;;18.75;;
50988;SDS011;37008;52.210;21.112;2022-08-19T03:34:41;25.60;;;19.55;;
50988;SDS011;37008;52.210;21.112;2022-08-19T03:37:08;26.08;;;17.95;;
50988;SDS011;37008;52.210;21.112;2022-08-19T03:39:37;21.48;;;17.63;;
50988;SDS011;37008;52.210;21.112;2022-08-19T03:42:03;21.75;;;17.05;;
50988;SDS011;37008;52.210;21.112;2022-08-19T03:44:30;26.38;;;18.77;;
50988;SDS011;37008;52.210;21.112;2022-08-19T03:46:57;20.75;;;18.42;;
50988;SDS011;37008;52.210;21.112;2022-08-19T03:49:25;27.83;;;20.23;;
50988;SDS011;37008;52.210;21.112;2022-08-19T03:51:53;22.40;;;17.98;;
50988;SDS011;37008;52.210;21.112;2022-08-19T03:54:20;22.73;;;19.67;;
50988;SDS011;37008;52.210;21.112;2022-08-19T03:56:51;26.27;;;18.50;;
50988;SDS011;37008;52.210;21.112;2022-08-19T03:59:28;24.00;;;18.13;;
50988;SDS011;37008;52.210;21.112;2022-08-19T04:01:57;22.13;;;19.23;;
50988;SDS011;37008;52.210;21.112;2022-08-19T04:04:24;22.25;;;19.73;;
50988;SDS011;37008;52.210;21.112;2022-08-19T04:06:50;23.17;;;19.60;;
50988;SDS011;37008;52.210;21.112;2022-08-19T04:09:18;23.38;;;19.23;;
50988;SDS011;37008;52.210;21.112;2022-08-19T04:11:46;21.02;;;17.75;;
50988;SDS011;37008;52.210;21.112;2022-08-19T04:14:15;22.77;;;16.38;;
50988;SDS011;37008;52.210;21.112;2022-08-19T04:16:43;20.58;;;17.08;;
50988;SDS011;37008;52.210;21.112;2022-08-19T04:19:10;20.52;;;16.77;;
50988;SDS011;37008;52.210;21.112;2022-08-19T04:21:36;20.52;;;18.08;;
50988;SDS011;37008;52.210;21.112;2022-08-19T04:24:03;20.63;;;17.95;;
50988;SDS011;37008;52.210;21.112;2022-08-19T04:26:31;21.67;;;17.05;;
50988;SDS011;37008;52.210;21.112;2022-08-19T04:28:59;21.45;;;17.67;;
50988;SDS011;37008;52.210;21.112;2022-08-19T04:31:28;21.23;;;18.42;;
50988;SDS011;37008;52.210;21.112;2022-08-19T04:33:56;22.13;;;16.35;;
50988;SDS011;37008;52.210;21.112;2022-08-19T04:36:25;15.60;;;14.05;;
50988;SDS011;37008;52.210;21.112;2022-08-19T04:38:54;17.27;;;14.98;;
50988;SDS011;37008;52.210;21.112;2022-08-19T04:41:21;17.88;;;14.20;;
50988;SDS011;37008;52.210;21.112;2022-08-19T04:44:05;16.75;;;13.07;;
50988;SDS011;37008;52.210;21.112;2022-08-19T04:46:31;15.88;;;14.05;;
50988;SDS011;37008;52.210;21.112;2022-08-19T04:49:01;14.70;;;12.40;;
50988;SDS011;37008;52.210;21.112;2022-08-19T04:51:29;22.58;;;12.55;;
50988;SDS011;37008;52.210;21.112;2022-08-19T04:53:56;15.68;;;12.35;;
50988;SDS011;37008;52.210;21.112;2022-08-19T04:56:21;19.00;;;12.50;;
50988;SDS011;37008;52.210;21.112;2022-08-19T04:58:47;16.98;;;13.10;;
50988;SDS011;37008;52.210;21.112;2022-08-19T05:01:34;15.52;;;12.18;;
50988;SDS011;37008;52.210;21.112;2022-08-19T05:04:02;17.27;;;12.05;;
50988;SDS011;37008;52.210;21.112;2022-08-19T05:06:29;15.02;;;12.75;;
50988;SDS011;37008;52.210;21.112;2022-08-19T05:08:58;17.60;;;13.45;;
50988;SDS011;37008;52.210;21.112;2022-08-19T05:11:26;15.70;;;12.85;;
50988;SDS011;37008;52.210;21.112;2022-08-19T05:13:53;16.33;;;11.45;;
50988;SDS011;37008;52.210;21.112;2022-08-19T05:16:20;15.73;;;11.77;;
50988;SDS011;37008;52.210;21.112;2022-08-19T05:18:47;13.20;;;11.52;;
50988;SDS011;37008;52.210;21.112;2022-08-19T05:21:32;16.02;;;11.52;;
50988;SDS011;37008;52.210;21.112;2022-08-19T05:24:17;16.42;;;12.23;;
50988;SDS011;37008;52.210;21.112;2022-08-19T05:26:45;29.05;;;13.13;;
50988;SDS011;37008;52.210;21.112;2022-08-19T05:29:14;15.13;;;10.30;;
50988;SDS011;37008;52.210;21.112;2022-08-19T05:31:42;14.13;;;10.27;;
50988;SDS011;37008;52.210;21.112;2022-08-19T05:34:07;18.73;;;11.77;;
50988;SDS011;37008;52.210;21.112;2022-08-19T05:36:43;15.63;;;10.50;;
50988;SDS011;37008;52.210;21.112;2022-08-19T05:39:11;18.73;;;10.90;;
50988;SDS011;37008;52.210;21.112;2022-08-19T05:41:41;17.45;;;11.23;;
50988;SDS011;37008;52.210;21.112;2022-08-19T05:44:08;18.35;;;11.40;;
50988;SDS011;37008;52.210;21.112;2022-08-19T05:46:35;15.52;;;9.98;;
50988;SDS011;37008;52.210;21.112;2022-08-19T05:49:03;19.50;;;11.35;;
50988;SDS011;37008;52.210;21.112;2022-08-19T05:51:33;16.65;;;9.90;;
50988;SDS011;37008;52.210;21.112;2022-08-19T05:54:01;12.35;;;10.20;;
50988;SDS011;37008;52.210;21.112;2022-08-19T05:56:27;18.35;;;10.23;;
50988;SDS011;37008;52.210;21.112;2022-08-19T05:58:55;16.50;;;9.70;;
50988;SDS011;37008;52.210;21.112;2022-08-19T06:01:20;13.23;;;9.75;;
50988;SDS011;37008;52.210;21.112;2022-08-19T06:03:46;14.80;;;8.93;;
50988;SDS011;37008;52.210;21.112;2022-08-19T06:06:13;15.07;;;9.40;;
50988;SDS011;37008;52.210;21.112;2022-08-19T06:08:40;16.33;;;9.98;;
50988;SDS011;37008;52.210;21.112;2022-08-19T06:11:11;14.82;;;9.15;;
50988;SDS011;37008;52.210;21.112;2022-08-19T06:13:43;17.58;;;9.73;;
50988;SDS011;37008;52.210;21.112;2022-08-19T06:16:12;12.05;;;9.27;;
50988;SDS011;37008;52.210;21.112;2022-08-19T06:18:38;11.57;;;9.63;;
50988;SDS011;37008;52.210;21.112;2022-08-19T06:21:03;13.15;;;9.50;;
50988;SDS011;37008;52.210;21.112;2022-08-19T06:23:29;14.98;;;9.15;;
50988;SDS011;37008;52.210;21.112;2022-08-19T06:25:55;15.25;;;8.77;;
50988;SDS011;37008;52.210;21.112;2022-08-19T06:28:21;16.27;;;9.50;;
50988;SDS011;37008;52.210;21.112;2022-08-19T06:30:48;15.30;;;8.95;;
50988;SDS011;37008;52.210;21.112;2022-08-19T06:33:15;15.82;;;9.55;;
50988;SDS011;37008;52.210;21.112;2022-08-19T06:35:40;12.95;;;9.15;;
50988;SDS011;37008;52.210;21.112;2022-08-19T06:38:06;20.70;;;8.82;;
50988;SDS011;37008;52.210;21.112;2022-08-19T06:40:32;17.00;;;10.40;;
50988;SDS011;37008;52.210;21.112;2022-08-19T06:42:57;17.25;;;9.45;;
50988;SDS011;37008;52.210;21.112;2022-08-19T06:45:25;13.05;;;9.05;;
50988;SDS011;37008;52.210;21.112;2022-08-19T06:47:51;14.38;;;8.68;;
50988;SDS011;37008;52.210;21.112;2022-08-19T06:50:19;12.98;;;8.73;;
50988;SDS011;37008;52.210;21.112;2022-08-19T06:52:44;13.75;;;8.50;;
50988;SDS011;37008;52.210;21.112;2022-08-19T06:55:11;15.82;;;9.13;;
50988;SDS011;37008;52.210;21.112;2022-08-19T06:57:37;18.13;;;9.15;;
50988;SDS011;37008;52.210;21.112;2022-08-19T07:00:04;13.77;;;9.32;;
50988;SDS011;37008;52.210;21.112;2022-08-19T07:02:30;13.75;;;8.77;;
50988;SDS011;37008;52.210;21.112;2022-08-19T07:04:56;13.85;;;8.93;;
50988;SDS011;37008;52.210;21.112;2022-08-19T07:07:27;11.35;;;8.13;;
50988;SDS011;37008;52.210;21.112;2022-08-19T07:09:53;12.52;;;8.38;;
50988;SDS011;37008;52.210;21.112;2022-08-19T07:12:18;16.80;;;8.82;;
50988;SDS011;37008;52.210;21.112;2022-08-19T07:14:44;15.18;;;8.60;;
50988;SDS011;37008;52.210;21.112;2022-08-19T07:17:11;14.40;;;9.00;;
50988;SDS011;37008;52.210;21.112;2022-08-19T07:19:38;13.98;;;8.38;;
50988;SDS011;37008;52.210;21.112;2022-08-19T07:22:05;15.02;;;8.30;;
50988;SDS011;37008;52.210;21.112;2022-08-19T07:24:32;13.77;;;8.57;;
50988;SDS011;37008;52.210;21.112;2022-08-19T07:26:59;10.77;;;7.70;;
50988;SDS011;37008;52.210;21.112;2022-08-19T07:29:27;14.70;;;8.95;;
50988;SDS011;37008;52.210;21.112;2022-08-19T07:31:55;16.08;;;9.23;;
50988;SDS011;37008;52.210;21.112;2022-08-19T07:34:21;14.90;;;8.52;;
50988;SDS011;37008;52.210;21.112;2022-08-19T07:36:49;14.48;;;8.88;;
50988;SDS011;37008;52.210;21.112;2022-08-19T07:39:20;14.00;;;8.52;;
50988;SDS011;37008;52.210;21.112;2022-08-19T07:41:54;13.43;;;8.43;;
50988;SDS011;37008;52.210;21.112;2022-08-19T07:44:20;16.33;;;8.32;;
50988;SDS011;37008;52.210;21.112;2022-08-19T07:46:48;16.88;;;8.73;;
50988;SDS011;37008;52.210;21.112;2022-08-19T07:49:20;12.20;;;8.30;;
50988;SDS011;37008;52.210;21.112;2022-08-19T07:51:47;11.38;;;8.68;;
50988;SDS011;37008;52.210;21.112;2022-08-19T07:54:15;13.45;;;8.02;;
50988;SDS011;37008;52.210;21.112;2022-08-19T07:56:42;16.40;;;8.23;;
50988;SDS011;37008;52.210;21.112;2022-08-19T07:59:07;13.23;;;8.85;;
50988;SDS011;37008;52.210;21.112;2022-08-19T08:01:34;13.60;;;7.95;;
50988;SDS011;37008;52.210;21.112;2022-08-19T08:04:00;17.55;;;8.48;;
50988;SDS011;37008;52.210;21.112;2022-08-19T08:06:44;15.23;;;7.55;;
50988;SDS011;37008;52.210;21.112;2022-08-19T08:09:30;17.07;;;7.60;;
50988;SDS011;37008;52.210;21.112;2022-08-19T08:12:01;13.65;;;7.65;;
50988;SDS011;37008;52.210;21.112;2022-08-19T08:14:35;14.27;;;7.78;;
50988;SDS011;37008;52.210;21.112;2022-08-19T08:17:04;12.55;;;7.60;;
50988;SDS011;37008;52.210;21.112;2022-08-19T08:19:31;15.15;;;7.45;;
50988;SDS011;37008;52.210;21.112;2022-08-19T08:21:57;13.25;;;7.53;;
50988;SDS011;37008;52.210;21.112;2022-08-19T08:24:25;15.02;;;7.50;;
50988;SDS011;37008;52.210;21.112;2022-08-19T08:26:52;22.27;;;14.07;;
50988;SDS011;37008;52.210;21.112;2022-08-19T08:29:18;17.38;;;8.50;;
50988;SDS011;37008;52.210;21.112;2022-08-19T08:31:44;15.15;;;7.60;;
50988;SDS011;37008;52.210;21.112;2022-08-19T08:34:11;27.77;;;7.78;;
50988;SDS011;37008;52.210;21.112;2022-08-19T08:36:39;20.35;;;7.88;;
50988;SDS011;37008;52.210;21.112;2022-08-19T08:39:09;14.55;;;7.70;;
50988;SDS011;37008;52.210;21.112;2022-08-19T08:44:38;12.23;;;7.20;;
50988;SDS011;37008;52.210;21.112;2022-08-19T08:47:22;13.02;;;7.95;;
50988;SDS011;37008;52.210;21.112;2022-08-19T08:49:59;12.95;;;7.55;;
50988;SDS011;37008;52.210;21.112;2022-08-19T08:52:33;13.68;;;7.60;;
50988;SDS011;37008;52.210;21.112;2022-08-19T08:55:11;13.52;;;7.35;;
50988;SDS011;37008;52.210;21.112;2022-08-19T09:00:17;11.48;;;7.53;;
50988;SDS011;37008;52.210;21.112;2022-08-19T09:02:46;19.38;;;7.63;;
50988;SDS011;37008;52.210;21.112;2022-08-19T09:05:12;19.67;;;7.80;;
50988;SDS011;37008;52.210;21.112;2022-08-19T09:13:19;15.07;;;7.28;;
50988;SDS011;37008;52.210;21.112;2022-08-19T09:16:06;11.70;;;7.38;;
50988;SDS011;37008;52.210;21.112;2022-08-19T09:18:42;12.57;;;7.55;;
50988;SDS011;37008;52.210;21.112;2022-08-19T09:21:11;14.40;;;6.80;;
50988;SDS011;37008;52.210;21.112;2022-08-19T09:23:37;19.58;;;7.22;;
50988;SDS011;37008;52.210;21.112;2022-08-19T09:26:06;15.73;;;6.80;;
50988;SDS011;37008;52.210;21.112;2022-08-19T09:28:41;11.65;;;6.95;;
50988;SDS011;37008;52.210;21.112;2022-08-19T09:31:11;20.13;;;7.47;;
50988;SDS011;37008;52.210;21.112;2022-08-19T09:33:37;14.98;;;7.13;;
50988;SDS011;37008;52.210;21.112;2022-08-19T09:36:04;12.45;;;6.60;;
50988;SDS011;37008;52.210;21.112;2022-08-19T09:38:32;14.88;;;6.45;;
50988;SDS011;37008;52.210;21.112;2022-08-19T09:41:02;9.50;;;6.28;;
50988;SDS011;37008;52.210;21.112;2022-08-19T09:43:29;15.25;;;7.22;;
50988;SDS011;37008;52.210;21.112;2022-08-19T09:45:56;13.82;;;6.82;;
50988;SDS011;37008;52.210;21.112;2022-08-19T09:48:21;11.35;;;7.22;;
50988;SDS011;37008;52.210;21.112;2022-08-19T09:50:47;16.45;;;6.40;;
50988;SDS011;37008;52.210;21.112;2022-08-19T09:53:13;15.25;;;6.20;;
50988;SDS011;37008;52.210;21.112;2022-08-19T09:55:42;12.60;;;6.60;;
50988;SDS011;37008;52.210;21.112;2022-08-19T09:58:08;11.10;;;6.57;;
50988;SDS011;37008;52.210;21.112;2022-08-19T10:00:34;12.02;;;6.40;;
50988;SDS011;37008;52.210;21.112;2022-08-19T10:03:01;18.00;;;6.63;;
50988;SDS011;37008;52.210;21.112;2022-08-19T10:05:27;13.63;;;6.00;;
50988;SDS011;37008;52.210;21.112;2022-08-19T10:08:11;18.95;;;7.30;;
50988;SDS011;37008;52.210;21.112;2022-08-19T10:10:37;14.73;;;10.35;;
50988;SDS011;37008;52.210;21.112;2022-08-19T10:13:02;18.10;;;14.63;;
50988;SDS011;37008;52.210;21.112;2022-08-19T10:15:28;17.27;;;6.82;;
50988;SDS011;37008;52.210;21.112;2022-08-19T10:17:54;19.17;;;6.30;;
50988;SDS011;37008;52.210;21.112;2022-08-19T10:20:20;12.27;;;5.65;;
50988;SDS011;37008;52.210;21.112;2022-08-19T10:22:47;10.23;;;5.47;;
50988;SDS011;37008;52.210;21.112;2022-08-19T10:25:13;10.85;;;5.75;;
50988;SDS011;37008;52.210;21.112;2022-08-19T10:27:39;13.00;;;5.88;;
50988;SDS011;37008;52.210;21.112;2022-08-19T10:30:05;11.32;;;5.68;;
50988;SDS011;37008;52.210;21.112;2022-08-19T10:32:31;16.65;;;6.03;;
50988;SDS011;37008;52.210;21.112;2022-08-19T10:34:57;22.33;;;6.32;;
50988;SDS011;37008;52.210;21.112;2022-08-19T10:37:22;18.50;;;7.28;;
50988;SDS011;37008;52.210;21.112;2022-08-19T10:39:48;10.70;;;6.47;;
50988;SDS011;37008;52.210;21.112;2022-08-19T10:42:14;11.40;;;5.68;;
50988;SDS011;37008;52.210;21.112;2022-08-19T10:44:41;8.45;;;5.40;;
50988;SDS011;37008;52.210;21.112;2022-08-19T10:47:07;16.02;;;5.47;;
50988;SDS011;37008;52.210;21.112;2022-08-19T10:49:33;11.45;;;5.97;;
50988;SDS011;37008;52.210;21.112;2022-08-19T10:52:18;10.45;;;5.75;;
50988;SDS011;37008;52.210;21.112;2022-08-19T10:55:03;15.38;;;5.50;;
50988;SDS011;37008;52.210;21.112;2022-08-19T10:57:49;13.68;;;5.75;;
50988;SDS011;37008;52.210;21.112;2022-08-19T11:00:14;10.00;;;5.47;;
50988;SDS011;37008;52.210;21.112;2022-08-19T11:02:40;14.18;;;6.35;;
50988;SDS011;37008;52.210;21.112;2022-08-19T11:05:07;17.77;;;5.72;;
50988;SDS011;37008;52.210;21.112;2022-08-19T11:07:35;12.63;;;5.57;;
50988;SDS011;37008;52.210;21.112;2022-08-19T11:10:03;18.25;;;5.75;;
50988;SDS011;37008;52.210;21.112;2022-08-19T11:12:29;10.65;;;6.30;;
50988;SDS011;37008;52.210;21.112;2022-08-19T11:14:55;13.75;;;6.07;;
50988;SDS011;37008;52.210;21.112;2022-08-19T11:17:20;14.15;;;8.15;;
50988;SDS011;37008;52.210;21.112;2022-08-19T11:19:48;11.77;;;6.13;;
50988;SDS011;37008;52.210;21.112;2022-08-19T11:22:14;13.25;;;6.20;;
50988;SDS011;37008;52.210;21.112;2022-08-19T11:24:40;13.32;;;5.50;;
50988;SDS011;37008;52.210;21.112;2022-08-19T11:27:07;10.50;;;5.80;;
50988;SDS011;37008;52.210;21.112;2022-08-19T11:29:34;15.23;;;5.63;;
50988;SDS011;37008;52.210;21.112;2022-08-19T11:32:03;15.95;;;6.13;;
50988;SDS011;37008;52.210;21.112;2022-08-19T11:34:31;9.63;;;5.80;;
50988;SDS011;37008;52.210;21.112;2022-08-19T11:36:56;12.82;;;5.70;;
50988;SDS011;37008;52.210;21.112;2022-08-19T11:39:24;8.10;;;5.85;;
50988;SDS011;37008;52.210;21.112;2022-08-19T11:41:51;15.07;;;5.95;;
50988;SDS011;37008;52.210;21.112;2022-08-19T11:44:16;12.25;;;5.85;;
50988;SDS011;37008;52.210;21.112;2022-08-19T11:46:43;10.63;;;4.85;;
50988;SDS011;37008;52.210;21.112;2022-08-19T11:49:15;15.35;;;5.63;;
50988;SDS011;37008;52.210;21.112;2022-08-19T11:51:43;10.93;;;5.38;;
50988;SDS011;37008;52.210;21.112;2022-08-19T11:54:10;12.93;;;5.90;;
50988;SDS011;37008;52.210;21.112;2022-08-19T11:56:37;7.35;;;5.22;;
50988;SDS011;37008;52.210;21.112;2022-08-19T11:59:04;15.90;;;5.43;;
50988;SDS011;37008;52.210;21.112;2022-08-19T12:01:30;17.30;;;5.47;;
50988;SDS011;37008;52.210;21.112;2022-08-19T12:03:56;14.02;;;5.57;;
50988;SDS011;37008;52.210;21.112;2022-08-19T12:06:23;17.10;;;5.47;;
50988;SDS011;37008;52.210;21.112;2022-08-19T12:08:53;12.43;;;4.63;;
50988;SDS011;37008;52.210;21.112;2022-08-19T12:11:22;11.18;;;5.15;;
50988;SDS011;37008;52.210;21.112;2022-08-19T12:13:48;16.63;;;5.57;;
50988;SDS011;37008;52.210;21.112;2022-08-19T12:16:16;16.13;;;5.40;;
50988;SDS011;37008;52.210;21.112;2022-08-19T12:18:48;15.02;;;5.70;;
50988;SDS011;37008;52.210;21.112;2022-08-19T12:21:16;11.00;;;5.47;;
50988;SDS011;37008;52.210;21.112;2022-08-19T12:23:46;11.90;;;5.20;;
50988;SDS011;37008;52.210;21.112;2022-08-19T12:26:13;11.27;;;5.78;;
50988;SDS011;37008;52.210;21.112;2022-08-19T12:28:39;15.23;;;5.30;;
50988;SDS011;37008;52.210;21.112;2022-08-19T12:31:05;22.02;;;13.70;;
50988;SDS011;37008;52.210;21.112;2022-08-19T12:33:31;13.40;;;6.80;;
50988;SDS011;37008;52.210;21.112;2022-08-19T12:35:59;11.43;;;4.95;;
50988;SDS011;37008;52.210;21.112;2022-08-19T12:38:28;11.50;;;5.53;;
50988;SDS011;37008;52.210;21.112;2022-08-19T12:40:53;9.73;;;5.72;;
50988;SDS011;37008;52.210;21.112;2022-08-19T12:43:19;18.48;;;5.70;;
50988;SDS011;37008;52.210;21.112;2022-08-19T12:45:45;9.90;;;5.30;;
50988;SDS011;37008;52.210;21.112;2022-08-19T12:48:11;9.80;;;5.50;;
50988;SDS011;37008;52.210;21.112;2022-08-19T12:50:41;9.98;;;5.03;;
50988;SDS011;37008;52.210;21.112;2022-08-19T12:53:08;16.27;;;4.60;;
50988;SDS011;37008;52.210;21.112;2022-08-19T12:55:33;14.88;;;4.97;;
50988;SDS011;37008;52.210;21.112;2022-08-19T12:57:59;15.02;;;5.20;;
50988;SDS011;37008;52.210;21.112;2022-08-19T13:00:26;15.43;;;5.22;;
50988;SDS011;37008;52.210;21.112;2022-08-19T13:02:53;21.35;;;6.05;;
50988;SDS011;37008;52.210;21.112;2022-08-19T13:05:20;10.30;;;4.82;;
50988;SDS011;37008;52.210;21.112;2022-08-19T13:07:48;11.50;;;5.68;;
50988;SDS011;37008;52.210;21.112;2022-08-19T13:10:17;13.07;;;4.95;;
50988;SDS011;37008;52.210;21.112;2022-08-19T13:12:45;16.40;;;4.45;;
50988;SDS011;37008;52.210;21.112;2022-08-19T13:15:12;13.02;;;4.88;;
50988;SDS011;37008;52.210;21.112;2022-08-19T13:17:39;9.30;;;4.32;;
50988;SDS011;37008;52.210;21.112;2022-08-19T13:20:09;9.07;;;4.50;;
50988;SDS011;37008;52.210;21.112;2022-08-19T13:22:36;9.63;;;4.63;;
50988;SDS011;37008;52.210;21.112;2022-08-19T13:25:03;15.65;;;4.85;;
50988;SDS011;37008;52.210;21.112;2022-08-19T13:27:30;11.52;;;4.85;;
50988;SDS011;37008;52.210;21.112;2022-08-19T13:29:56;9.48;;;5.38;;
50988;SDS011;37008;52.210;21.112;2022-08-19T13:32:40;9.10;;;4.85;;
50988;SDS011;37008;52.210;21.112;2022-08-19T13:35:24;11.67;;;4.93;;
50988;SDS011;37008;52.210;21.112;2022-08-19T13:37:50;15.48;;;4.90;;
50988;SDS011;37008;52.210;21.112;2022-08-19T13:40:17;9.60;;;4.03;;
50988;SDS011;37008;52.210;21.112;2022-08-19T13:42:50;12.05;;;5.20;;
50988;SDS011;37008;52.210;21.112;2022-08-19T13:45:18;10.68;;;5.15;;
50988;SDS011;37008;52.210;21.112;2022-08-19T13:47:48;12.65;;;4.90;;
50988;SDS011;37008;52.210;21.112;2022-08-19T13:50:17;11.95;;;4.50;;
50988;SDS011;37008;52.210;21.112;2022-08-19T13:52:45;9.48;;;4.68;;
50988;SDS011;37008;52.210;21.112;2022-08-19T13:55:12;10.13;;;5.07;;
50988;SDS011;37008;52.210;21.112;2022-08-19T13:57:38;15.75;;;4.35;;
50988;SDS011;37008;52.210;21.112;2022-08-19T14:00:06;11.85;;;4.45;;
50988;SDS011;37008;52.210;21.112;2022-08-19T14:02:35;16.08;;;4.60;;
50988;SDS011;37008;52.210;21.112;2022-08-19T14:05:03;9.48;;;4.30;;
50988;SDS011;37008;52.210;21.112;2022-08-19T14:07:30;9.60;;;4.68;;
50988;SDS011;37008;52.210;21.112;2022-08-19T14:09:56;9.20;;;4.60;;
50988;SDS011;37008;52.210;21.112;2022-08-19T14:12:22;10.02;;;4.32;;
50988;SDS011;37008;52.210;21.112;2022-08-19T14:14:48;9.43;;;3.95;;
50988;SDS011;37008;52.210;21.112;2022-08-19T14:17:14;12.05;;;4.50;;
50988;SDS011;37008;52.210;21.112;2022-08-19T14:19:40;8.13;;;4.43;;
50988;SDS011;37008;52.210;21.112;2022-08-19T14:22:06;18.90;;;4.68;;
50988;SDS011;37008;52.210;21.112;2022-08-19T14:24:32;6.50;;;4.10;;
50988;SDS011;37008;52.210;21.112;2022-08-19T14:26:58;9.50;;;3.97;;
50988;SDS011;37008;52.210;21.112;2022-08-19T14:29:25;11.40;;;4.38;;
50988;SDS011;37008;52.210;21.112;2022-08-19T14:31:53;14.05;;;4.30;;